createdAt,value
2019-05-01T00:00:27.066Z,1015.65
2019-05-01T00:01:27.084Z,1015.72
2019-05-01T00:02:27.103Z,1015.63
2019-05-01T00:03:27.062Z,1015.70
2019-05-01T00:04:27.016Z,1015.61
2019-05-01T00:05:27.031Z,1015.62
2019-05-01T00:06:26.994Z,1015.64
2019-05-01T00:07:26.989Z,1015.62
2019-05-01T00:08:27.025Z,1015.64
2019-05-01T00:09:26.964Z,1015.65
2019-05-01T00:10:26.973Z,1015.63
2019-05-01T00:11:26.953Z,1015.62
2019-05-01T00:12:26.935Z,1015.67
2019-05-01T00:13:26.940Z,1015.58
2019-05-01T00:14:26.918Z,1015.56
2019-05-01T00:15:26.973Z,1015.53
2019-05-01T00:16:26.896Z,1015.59
2019-05-01T00:17:27.896Z,1015.59
2019-05-01T00:18:26.893Z,1015.60
2019-05-01T00:19:26.855Z,1015.55
2019-05-01T00:20:26.844Z,1015.57
2019-05-01T00:21:26.852Z,1015.57
2019-05-01T00:22:26.829Z,1015.54
2019-05-01T00:23:26.915Z,1015.59
2019-05-01T00:24:34.541Z,1015.48
2019-05-01T00:25:26.876Z,1015.54
2019-05-01T00:26:34.450Z,1015.53
2019-05-01T00:27:35.726Z,1015.53
2019-05-01T00:28:26.933Z,1015.54
2019-05-01T00:30:42.580Z,1015.55
2019-05-01T00:31:42.508Z,1015.55
2019-05-01T00:32:51.407Z,1015.56
2019-05-01T00:33:42.499Z,1015.54
2019-05-01T00:34:50.225Z,1015.50
2019-05-01T00:35:42.454Z,1015.47
2019-05-01T00:36:51.737Z,1015.48
2019-05-01T00:37:42.420Z,1015.47
2019-05-01T00:38:50.019Z,1015.44
2019-05-01T00:39:42.453Z,1015.45
2019-05-01T00:40:51.306Z,1015.45
2019-05-01T00:41:42.395Z,1015.45
2019-05-01T00:42:50.055Z,1015.48
2019-05-01T00:43:42.386Z,1015.45
2019-05-01T00:44:50.068Z,1015.45
2019-05-01T00:45:42.348Z,1015.48
2019-05-01T00:46:51.267Z,1015.46
2019-05-01T00:47:42.379Z,1015.45
2019-05-01T00:49:52.215Z,1015.42
2019-05-01T00:50:52.039Z,1015.40
2019-05-01T00:52:00.956Z,1015.45
2019-05-01T00:52:52.031Z,1015.45
2019-05-01T00:53:52.006Z,1015.43
2019-05-01T00:55:00.646Z,1015.46
2019-05-01T00:55:52.023Z,1015.41
2019-05-01T00:57:00.687Z,1015.43
2019-05-01T00:57:51.971Z,1015.41
2019-05-01T00:59:00.570Z,1015.42
2019-05-01T00:59:51.982Z,1015.42
2019-05-01T01:00:52.016Z,1015.45
2019-05-01T01:01:51.933Z,1015.42
2019-05-01T01:02:51.921Z,1015.40
2019-05-01T01:03:51.925Z,1015.33
2019-05-01T01:04:51.930Z,1015.33
2019-05-01T01:05:51.940Z,1015.32
2019-05-01T01:06:51.866Z,1015.29
2019-05-01T01:07:51.858Z,1015.32
2019-05-01T01:08:51.842Z,1015.28
2019-05-01T01:09:51.840Z,1015.30
2019-05-01T01:10:51.834Z,1015.27
2019-05-01T01:11:51.831Z,1015.27
2019-05-01T01:12:51.819Z,1015.29
2019-05-01T01:14:00.425Z,1015.31
2019-05-01T01:14:51.778Z,1015.30
2019-05-01T01:15:51.768Z,1015.27
2019-05-01T01:16:51.794Z,1015.28
2019-05-01T01:17:51.741Z,1015.26
2019-05-01T01:18:51.735Z,1015.23
2019-05-01T01:19:51.721Z,1015.23
2019-05-01T01:20:51.727Z,1015.21
2019-05-01T01:21:51.704Z,1015.27
2019-05-01T01:22:51.713Z,1015.20
2019-05-01T01:23:51.715Z,1015.22
2019-05-01T01:24:51.664Z,1015.25
2019-05-01T01:25:51.659Z,1015.16
2019-05-01T01:26:51.652Z,1015.14
2019-05-01T01:27:51.662Z,1015.20
2019-05-01T01:28:59.179Z,1015.14
2019-05-01T01:29:51.617Z,1015.12
2019-05-01T01:31:00.155Z,1015.09
2019-05-01T01:31:51.593Z,1015.09
2019-05-01T01:32:51.622Z,1015.08
2019-05-01T01:33:51.574Z,1015.12
2019-05-01T01:34:51.565Z,1015.06
2019-05-01T01:35:51.555Z,1015.05
2019-05-01T01:36:51.541Z,1015.07
2019-05-01T01:37:51.532Z,1015.07
2019-05-01T01:38:51.538Z,1015.03
2019-05-01T01:39:51.513Z,1015.04
2019-05-01T01:40:51.505Z,1015.05
2019-05-01T01:41:51.501Z,1015.07
2019-05-01T01:42:51.494Z,1015.08
2019-05-01T01:43:51.486Z,1015.02
2019-05-01T01:44:51.461Z,1015.00
2019-05-01T01:45:51.444Z,1015.01
2019-05-01T01:46:51.433Z,1015.03
2019-05-01T01:47:51.429Z,1015.02
2019-05-01T01:48:51.458Z,1015.06
2019-05-01T01:49:51.409Z,1014.97
2019-05-01T01:50:51.395Z,1015.01
2019-05-01T01:51:51.379Z,1015.01
2019-05-01T01:52:51.373Z,1015.03
2019-05-01T01:53:51.354Z,1014.95
2019-05-01T01:54:51.369Z,1014.95
2019-05-01T01:55:51.334Z,1014.94
2019-05-01T01:56:51.329Z,1014.98
2019-05-01T01:57:51.315Z,1014.94
2019-05-01T01:58:51.303Z,1014.96
2019-05-01T01:59:51.304Z,1014.98
2019-05-01T02:00:51.312Z,1014.99
2019-05-01T02:01:51.280Z,1015.03
2019-05-01T02:02:51.260Z,1014.97
2019-05-01T02:03:51.254Z,1014.95
2019-05-01T02:04:51.250Z,1014.96
2019-05-01T02:05:51.258Z,1014.97
2019-05-01T02:06:51.221Z,1014.92
2019-05-01T02:07:51.208Z,1014.95
2019-05-01T02:08:56.627Z,1014.89
2019-05-01T02:09:52.180Z,1014.92
2019-05-01T02:10:51.185Z,1014.92
2019-05-01T02:11:51.185Z,1014.97
2019-05-01T02:12:51.152Z,1014.93
2019-05-01T02:13:51.143Z,1014.93
2019-05-01T02:14:51.124Z,1014.91
2019-05-01T02:15:51.120Z,1014.96
2019-05-01T02:16:51.130Z,1014.92
2019-05-01T02:17:51.101Z,1014.89
2019-05-01T02:18:51.088Z,1014.86
2019-05-01T02:19:51.081Z,1014.85
2019-05-01T02:20:51.070Z,1014.87
2019-05-01T02:21:51.085Z,1014.86
2019-05-01T02:22:51.051Z,1014.87
2019-05-01T02:23:51.043Z,1014.80
2019-05-01T02:24:51.047Z,1014.80
2019-05-01T02:25:51.042Z,1014.78
2019-05-01T02:26:51.004Z,1014.75
2019-05-01T02:27:51.021Z,1014.75
2019-05-01T02:28:50.980Z,1014.74
2019-05-01T02:29:50.974Z,1014.73
2019-05-01T02:30:50.960Z,1014.68
2019-05-01T02:31:50.953Z,1014.76
2019-05-01T02:32:51.030Z,1014.72
2019-05-01T02:33:58.590Z,1014.77
2019-05-01T02:34:50.924Z,1014.73
2019-05-01T02:35:58.634Z,1014.72
2019-05-01T02:36:50.959Z,1014.71
2019-05-01T02:37:58.858Z,1014.69
2019-05-01T02:38:50.890Z,1014.65
2019-05-01T02:39:58.515Z,1014.69
2019-05-01T02:40:50.870Z,1014.71
2019-05-01T02:41:58.487Z,1014.68
2019-05-01T02:42:50.937Z,1014.68
2019-05-01T02:43:59.963Z,1014.73
2019-05-01T02:44:50.869Z,1014.73
2019-05-01T02:47:00.649Z,1014.72
2019-05-01T02:48:08.198Z,1014.65
2019-05-01T02:49:00.615Z,1014.66
2019-05-01T02:51:10.490Z,1014.64
2019-05-01T02:52:17.898Z,1014.71
2019-05-01T02:53:10.308Z,1014.61
2019-05-01T02:55:21.113Z,1014.70
2019-05-01T02:56:21.040Z,1014.67
2019-05-01T02:57:28.621Z,1014.60
2019-05-01T02:58:21.088Z,1014.63
2019-05-01T03:00:39.738Z,1014.61
2019-05-01T03:02:50.484Z,1014.61
2019-05-01T03:03:50.452Z,1014.58
2019-05-01T03:04:58.065Z,1014.68
2019-05-01T03:05:50.426Z,1014.61
2019-05-01T03:06:59.450Z,1014.63
2019-05-01T03:07:50.443Z,1014.62
2019-05-01T03:08:50.379Z,1014.65
2019-05-01T03:09:50.331Z,1014.62
2019-05-01T03:10:50.318Z,1014.61
2019-05-01T03:11:50.309Z,1014.58
2019-05-01T03:12:50.321Z,1014.57
2019-05-01T03:13:50.324Z,1014.61
2019-05-01T03:14:50.319Z,1014.56
2019-05-01T03:15:57.964Z,1014.51
2019-05-01T03:16:50.345Z,1014.57
2019-05-01T03:17:50.266Z,1014.54
2019-05-01T03:18:59.000Z,1014.57
2019-05-01T03:19:50.231Z,1014.56
2019-05-01T03:20:58.836Z,1014.57
2019-05-01T03:21:50.225Z,1014.60
2019-05-01T03:23:00.441Z,1014.57
2019-05-01T03:23:50.216Z,1014.55
2019-05-01T03:24:58.837Z,1014.55
2019-05-01T03:25:50.167Z,1014.58
2019-05-01T03:28:10.316Z,1014.58
2019-05-01T03:29:19.094Z,1014.59
2019-05-01T03:30:10.065Z,1014.58
2019-05-01T03:31:19.000Z,1014.57
2019-05-01T03:32:17.973Z,1014.56
2019-05-01T03:34:32.894Z,1014.62
2019-05-01T03:35:40.318Z,1014.52
2019-05-01T03:36:32.670Z,1014.51
2019-05-01T03:37:40.299Z,1014.48
2019-05-01T03:38:32.634Z,1014.51
2019-05-01T03:40:50.099Z,1014.48
2019-05-01T03:43:00.787Z,1014.51
2019-05-01T03:44:08.377Z,1014.49
2019-05-01T03:45:00.736Z,1014.46
2019-05-01T03:46:09.292Z,1014.46
2019-05-01T03:47:00.674Z,1014.47
2019-05-01T03:48:10.554Z,1014.44
2019-05-01T03:49:00.679Z,1014.46
2019-05-01T03:51:12.770Z,1014.46
2019-05-01T03:52:21.371Z,1014.45
2019-05-01T03:53:12.680Z,1014.48
2019-05-01T03:54:20.325Z,1014.45
2019-05-01T03:55:12.743Z,1014.45
2019-05-01T03:56:21.546Z,1014.45
2019-05-01T03:57:12.926Z,1014.42
2019-05-01T03:58:20.277Z,1014.44
2019-05-01T03:59:12.687Z,1014.41
2019-05-01T04:00:20.301Z,1014.41
2019-05-01T04:01:12.650Z,1014.41
2019-05-01T04:02:33.018Z,1014.42
2019-05-01T04:03:13.581Z,1014.37
2019-05-01T04:04:20.278Z,1014.47
2019-05-01T04:05:12.578Z,1014.43
2019-05-01T04:06:12.590Z,1014.42
2019-05-01T04:07:21.215Z,1014.45
2019-05-01T04:08:12.533Z,1014.41
2019-05-01T04:09:20.245Z,1014.46
2019-05-01T04:10:12.542Z,1014.43
2019-05-01T04:11:20.171Z,1014.43
2019-05-01T04:12:12.518Z,1014.46
2019-05-01T04:13:20.475Z,1014.42
2019-05-01T04:14:12.483Z,1014.41
2019-05-01T04:15:21.066Z,1014.42
2019-05-01T04:16:12.455Z,1014.42
2019-05-01T04:17:12.455Z,1014.44
2019-05-01T04:18:12.414Z,1014.43
2019-05-01T04:19:12.420Z,1014.39
2019-05-01T04:20:12.397Z,1014.45
2019-05-01T04:21:12.385Z,1014.49
2019-05-01T04:22:12.387Z,1014.43
2019-05-01T04:23:12.373Z,1014.46
2019-05-01T04:24:12.405Z,1014.48
2019-05-01T04:25:12.351Z,1014.47
2019-05-01T04:26:12.334Z,1014.51
2019-05-01T04:27:12.462Z,1014.48
2019-05-01T04:28:12.345Z,1014.53
2019-05-01T04:29:12.439Z,1014.51
2019-05-01T04:30:12.330Z,1014.56
2019-05-01T04:31:12.340Z,1014.51
2019-05-01T04:32:12.445Z,1014.58
2019-05-01T04:33:12.305Z,1014.53
2019-05-01T04:34:12.265Z,1014.53
2019-05-01T04:35:12.371Z,1014.57
2019-05-01T04:36:12.298Z,1014.62
2019-05-01T04:37:12.366Z,1014.65
2019-05-01T04:38:12.315Z,1014.61
2019-05-01T04:39:12.219Z,1014.63
2019-05-01T04:40:12.336Z,1014.59
2019-05-01T04:41:12.200Z,1014.63
2019-05-01T04:42:12.266Z,1014.62
2019-05-01T04:43:12.261Z,1014.58
2019-05-01T04:44:12.167Z,1014.61
2019-05-01T04:45:12.243Z,1014.62
2019-05-01T04:46:12.232Z,1014.60
2019-05-01T04:47:12.227Z,1014.59
2019-05-01T04:48:12.106Z,1014.56
2019-05-01T04:49:12.158Z,1014.57
2019-05-01T04:50:12.178Z,1014.59
2019-05-01T04:51:12.109Z,1014.59
2019-05-01T04:52:12.113Z,1014.61
2019-05-01T04:53:12.142Z,1014.59
2019-05-01T04:54:12.086Z,1014.66
2019-05-01T04:55:12.160Z,1014.60
2019-05-01T04:56:12.035Z,1014.68
2019-05-01T04:57:12.028Z,1014.64
2019-05-01T04:58:12.021Z,1014.71
2019-05-01T04:59:12.077Z,1014.64
2019-05-01T05:00:12.116Z,1014.65
2019-05-01T05:01:12.037Z,1014.65
2019-05-01T05:02:11.987Z,1014.68
2019-05-01T05:03:12.049Z,1014.61
2019-05-01T05:04:12.021Z,1014.61
2019-05-01T05:05:11.997Z,1014.55
2019-05-01T05:06:11.977Z,1014.59
2019-05-01T05:07:11.958Z,1014.59
2019-05-01T05:08:11.918Z,1014.57
2019-05-01T05:09:11.924Z,1014.56
2019-05-01T05:10:11.902Z,1014.62
2019-05-01T05:11:11.974Z,1014.62
2019-05-01T05:12:12.019Z,1014.66
2019-05-01T05:13:11.997Z,1014.61
2019-05-01T05:14:11.910Z,1014.62
2019-05-01T05:15:11.931Z,1014.64
2019-05-01T05:16:11.879Z,1014.64
2019-05-01T05:17:11.944Z,1014.61
2019-05-01T05:18:11.800Z,1014.67
2019-05-01T05:19:11.822Z,1014.68
2019-05-01T05:20:11.931Z,1014.63
2019-05-01T05:21:11.807Z,1014.59
2019-05-01T05:22:11.893Z,1014.61
2019-05-01T05:23:11.777Z,1014.63
2019-05-01T05:24:11.732Z,1014.62
2019-05-01T05:25:11.802Z,1014.62
2019-05-01T05:26:11.804Z,1014.62
2019-05-01T05:27:11.701Z,1014.63
2019-05-01T05:28:11.890Z,1014.66
2019-05-01T05:29:11.760Z,1014.60
2019-05-01T05:30:11.663Z,1014.65
2019-05-01T05:31:11.758Z,1014.62
2019-05-01T05:32:11.683Z,1014.68
2019-05-01T05:33:18.165Z,1014.71
2019-05-01T05:34:12.766Z,1014.72
2019-05-01T05:35:11.634Z,1014.69
2019-05-01T05:36:11.615Z,1014.69
2019-05-01T05:37:11.641Z,1014.73
2019-05-01T05:38:11.646Z,1014.76
2019-05-01T05:39:11.727Z,1014.77
2019-05-01T05:40:11.587Z,1014.73
2019-05-01T05:41:11.615Z,1014.74
2019-05-01T05:42:11.570Z,1014.77
2019-05-01T05:43:11.522Z,1014.72
2019-05-01T05:44:11.628Z,1014.73
2019-05-01T05:45:11.551Z,1014.75
2019-05-01T05:46:11.695Z,1014.80
2019-05-01T05:47:21.165Z,1014.77
2019-05-01T05:48:11.469Z,1014.75
2019-05-01T05:49:11.511Z,1014.76
2019-05-01T05:50:11.513Z,1014.78
2019-05-01T05:51:11.472Z,1014.77
2019-05-01T05:52:11.435Z,1014.73
2019-05-01T05:53:11.471Z,1014.75
2019-05-01T05:54:11.449Z,1014.75
2019-05-01T05:55:11.395Z,1014.70
2019-05-01T05:56:11.474Z,1014.70
2019-05-01T05:57:11.414Z,1014.74
2019-05-01T05:58:11.394Z,1014.79
2019-05-01T05:59:11.411Z,1014.76
2019-05-01T06:00:11.356Z,1014.74
2019-05-01T06:01:11.343Z,1014.75
2019-05-01T06:02:11.373Z,1014.75
2019-05-01T06:03:11.328Z,1014.76
2019-05-01T06:04:11.402Z,1014.75
2019-05-01T06:05:11.466Z,1014.74
2019-05-01T06:06:11.303Z,1014.74
2019-05-01T06:07:11.365Z,1014.76
2019-05-01T06:08:11.368Z,1014.81
2019-05-01T06:09:14.034Z,1014.81
2019-05-01T06:10:11.384Z,1014.88
2019-05-01T06:11:11.322Z,1014.84
2019-05-01T06:12:11.263Z,1014.88
2019-05-01T06:13:11.295Z,1014.85
2019-05-01T06:14:11.230Z,1014.81
2019-05-01T06:15:11.241Z,1014.82
2019-05-01T06:16:27.214Z,1014.79
2019-05-01T06:17:11.210Z,1014.77
2019-05-01T06:18:11.238Z,1014.77
2019-05-01T06:19:14.601Z,1014.77
2019-05-01T06:20:12.145Z,1014.78
2019-05-01T06:21:12.924Z,1014.78
2019-05-01T06:22:11.674Z,1014.74
2019-05-01T06:23:11.076Z,1014.69
2019-05-01T06:24:11.081Z,1014.72
2019-05-01T06:25:21.569Z,1014.77
2019-05-01T06:26:12.057Z,1014.75
2019-05-01T06:27:13.671Z,1014.73
2019-05-01T06:28:24.630Z,1014.74
2019-05-01T06:29:12.045Z,1014.79
2019-05-01T06:30:18.584Z,1014.76
2019-05-01T06:31:11.009Z,1014.71
2019-05-01T06:32:18.555Z,1014.74
2019-05-01T06:33:11.308Z,1014.78
2019-05-01T06:34:10.977Z,1014.79
2019-05-01T06:35:10.983Z,1014.80
2019-05-01T06:36:13.274Z,1014.80
2019-05-01T06:37:10.936Z,1014.81
2019-05-01T06:38:10.928Z,1014.78
2019-05-01T06:39:11.989Z,1014.77
2019-05-01T06:40:10.904Z,1014.80
2019-05-01T06:41:10.932Z,1014.78
2019-05-01T06:42:15.233Z,1014.79
2019-05-01T06:43:11.886Z,1014.81
2019-05-01T06:44:10.861Z,1014.82
2019-05-01T06:45:13.042Z,1014.84
2019-05-01T06:46:11.863Z,1014.82
2019-05-01T06:47:10.834Z,1014.84
2019-05-01T06:48:14.190Z,1014.76
2019-05-01T06:49:11.810Z,1014.82
2019-05-01T06:50:10.794Z,1014.83
2019-05-01T06:51:13.046Z,1014.87
2019-05-01T06:52:11.803Z,1014.88
2019-05-01T06:53:10.770Z,1014.84
2019-05-01T06:54:16.123Z,1014.84
2019-05-01T06:55:11.745Z,1014.86
2019-05-01T06:56:10.775Z,1014.84
2019-05-01T06:57:10.728Z,1014.90
2019-05-01T06:58:14.795Z,1014.91
2019-05-01T06:59:11.710Z,1014.88
2019-05-01T07:00:10.695Z,1014.87
2019-05-01T07:01:13.839Z,1014.94
2019-05-01T07:02:11.673Z,1014.90
2019-05-01T07:03:11.664Z,1014.93
2019-05-01T07:04:10.666Z,1014.97
2019-05-01T07:05:14.699Z,1014.98
2019-05-01T07:06:14.354Z,1014.96
2019-05-01T07:07:24.669Z,1015.04
2019-05-01T07:08:23.968Z,1015.06
2019-05-01T07:09:12.201Z,1014.97
2019-05-01T07:10:10.586Z,1014.98
2019-05-01T07:11:10.944Z,1015.00
2019-05-01T07:12:10.567Z,1014.99
2019-05-01T07:13:19.184Z,1014.96
2019-05-01T07:14:11.217Z,1014.97
2019-05-01T07:15:11.528Z,1014.97
2019-05-01T07:16:10.551Z,1014.96
2019-05-01T07:17:13.572Z,1014.94
2019-05-01T07:18:11.580Z,1014.99
2019-05-01T07:19:10.505Z,1014.97
2019-05-01T07:20:11.910Z,1014.96
2019-05-01T07:21:11.487Z,1014.93
2019-05-01T07:22:10.489Z,1014.91
2019-05-01T07:23:12.689Z,1014.96
2019-05-01T07:24:11.437Z,1014.93
2019-05-01T07:25:10.426Z,1014.95
2019-05-01T07:26:13.739Z,1014.95
2019-05-01T07:27:10.407Z,1014.98
2019-05-01T07:28:10.422Z,1014.95
2019-05-01T07:29:11.077Z,1014.93
2019-05-01T07:30:10.372Z,1014.95
2019-05-01T07:31:10.369Z,1014.98
2019-05-01T07:32:10.363Z,1014.98
2019-05-01T07:33:12.018Z,1014.92
2019-05-01T07:34:16.673Z,1014.90
2019-05-01T07:35:11.319Z,1014.96
2019-05-01T07:36:15.396Z,1014.88
2019-05-01T07:37:11.303Z,1014.90
2019-05-01T07:38:10.284Z,1014.86
2019-05-01T07:39:14.759Z,1014.92
2019-05-01T07:40:11.273Z,1014.91
2019-05-01T07:41:12.371Z,1014.92
2019-05-01T07:42:12.386Z,1014.92
2019-05-01T07:43:10.233Z,1014.92
2019-05-01T07:44:10.252Z,1014.94
2019-05-01T07:45:10.219Z,1014.92
2019-05-01T07:46:13.707Z,1014.93
2019-05-01T07:47:11.200Z,1014.91
2019-05-01T07:48:10.184Z,1015.00
2019-05-01T07:49:12.984Z,1014.94
2019-05-01T07:50:11.162Z,1014.97
2019-05-01T07:51:10.226Z,1014.98
2019-05-01T07:52:12.576Z,1014.95
2019-05-01T07:53:11.140Z,1014.94
2019-05-01T07:54:10.140Z,1014.95
2019-05-01T07:55:13.026Z,1014.95
2019-05-01T07:56:11.099Z,1014.97
2019-05-01T07:57:10.082Z,1014.97
2019-05-01T07:58:15.226Z,1014.92
2019-05-01T07:59:11.125Z,1014.95
2019-05-01T08:00:10.101Z,1014.95
2019-05-01T08:01:13.072Z,1014.92
2019-05-01T08:02:11.034Z,1014.93
2019-05-01T08:03:10.045Z,1014.91
2019-05-01T08:04:13.877Z,1014.94
2019-05-01T08:05:11.759Z,1014.91
2019-05-01T08:06:21.440Z,1014.89
2019-05-01T08:07:10.980Z,1014.96
2019-05-01T08:08:09.994Z,1014.96
2019-05-01T08:09:11.329Z,1014.99
2019-05-01T08:10:10.967Z,1014.96
2019-05-01T08:11:10.374Z,1014.93
2019-05-01T08:12:09.925Z,1014.96
2019-05-01T08:13:09.914Z,1014.91
2019-05-01T08:14:11.941Z,1014.92
2019-05-01T08:15:10.915Z,1014.92
2019-05-01T08:16:09.882Z,1014.95
2019-05-01T08:17:12.812Z,1014.91
2019-05-01T08:18:10.860Z,1014.92
2019-05-01T08:19:09.853Z,1014.88
2019-05-01T08:20:14.697Z,1014.91
2019-05-01T08:21:10.826Z,1014.97
2019-05-01T08:22:09.817Z,1014.95
2019-05-01T08:23:12.154Z,1014.96
2019-05-01T08:24:09.798Z,1014.94
2019-05-01T08:25:09.787Z,1014.96
2019-05-01T08:26:10.314Z,1014.94
2019-05-01T08:27:09.764Z,1014.97
2019-05-01T08:28:09.752Z,1014.96
2019-05-01T08:29:09.746Z,1014.97
2019-05-01T08:30:12.864Z,1014.99
2019-05-01T08:31:11.367Z,1015.02
2019-05-01T08:32:09.715Z,1015.03
2019-05-01T08:33:14.162Z,1015.01
2019-05-01T08:34:10.689Z,1015.06
2019-05-01T08:35:09.680Z,1015.04
2019-05-01T08:36:11.683Z,1015.07
2019-05-01T08:37:09.679Z,1015.06
2019-05-01T08:38:09.647Z,1015.09
2019-05-01T08:39:10.810Z,1015.08
2019-05-01T08:40:09.637Z,1015.10
2019-05-01T08:41:09.617Z,1015.12
2019-05-01T08:42:09.627Z,1015.09
2019-05-01T08:43:09.593Z,1015.14
2019-05-01T08:44:09.585Z,1015.10
2019-05-01T08:45:09.579Z,1015.12
2019-05-01T08:46:11.900Z,1015.12
2019-05-01T08:47:10.578Z,1015.17
2019-05-01T08:48:09.543Z,1015.15
2019-05-01T08:49:11.442Z,1015.19
2019-05-01T08:50:09.520Z,1015.14
2019-05-01T08:51:09.576Z,1015.10
2019-05-01T08:52:12.922Z,1015.08
2019-05-01T08:53:09.675Z,1015.07
2019-05-01T08:54:09.500Z,1015.05
2019-05-01T08:55:10.848Z,1015.06
2019-05-01T08:56:09.838Z,1015.00
2019-05-01T08:57:09.448Z,1015.05
2019-05-01T08:58:13.922Z,1015.04
2019-05-01T08:59:09.424Z,1015.02
2019-05-01T09:00:09.415Z,1015.05
2019-05-01T09:01:10.887Z,1014.99
2019-05-01T09:02:10.433Z,1015.04
2019-05-01T09:03:13.595Z,1015.03
2019-05-01T09:04:13.023Z,1014.99
2019-05-01T09:05:27.544Z,1014.96
2019-05-01T09:06:10.426Z,1014.91
2019-05-01T09:07:09.344Z,1014.90
2019-05-01T09:08:09.375Z,1014.95
2019-05-01T09:09:10.323Z,1014.97
2019-05-01T09:10:09.425Z,1014.94
2019-05-01T09:11:09.825Z,1014.91
2019-05-01T09:12:11.737Z,1014.90
2019-05-01T09:13:09.302Z,1014.88
2019-05-01T09:14:09.274Z,1014.94
2019-05-01T09:15:12.681Z,1015.02
2019-05-01T09:16:10.248Z,1014.98
2019-05-01T09:17:09.240Z,1015.01
2019-05-01T09:18:09.247Z,1014.93
2019-05-01T09:19:09.218Z,1014.97
2019-05-01T09:20:09.209Z,1014.93
2019-05-01T09:21:09.191Z,1014.91
2019-05-01T09:22:09.180Z,1014.92
2019-05-01T09:23:09.427Z,1014.95
2019-05-01T09:24:09.163Z,1014.92
2019-05-01T09:25:09.149Z,1014.89
2019-05-01T09:26:14.794Z,1014.89
2019-05-01T09:27:10.130Z,1014.91
2019-05-01T09:28:09.138Z,1014.86
2019-05-01T09:29:11.075Z,1014.90
2019-05-01T09:30:10.099Z,1014.87
2019-05-01T09:31:09.083Z,1014.85
2019-05-01T09:32:10.278Z,1014.84
2019-05-01T09:33:09.086Z,1014.83
2019-05-01T09:34:09.569Z,1014.84
2019-05-01T09:35:15.558Z,1014.79
2019-05-01T09:36:10.032Z,1014.84
2019-05-01T09:37:09.030Z,1014.78
2019-05-01T09:38:09.036Z,1014.82
2019-05-01T09:39:09.006Z,1014.82
2019-05-01T09:40:10.292Z,1014.75
2019-05-01T09:41:08.982Z,1014.77
2019-05-01T09:42:08.975Z,1014.79
2019-05-01T09:43:08.975Z,1014.75
2019-05-01T09:44:10.694Z,1014.84
2019-05-01T09:45:08.938Z,1014.81
2019-05-01T09:46:08.929Z,1014.79
2019-05-01T09:47:08.914Z,1014.80
2019-05-01T09:48:08.905Z,1014.80
2019-05-01T09:49:08.912Z,1014.79
2019-05-01T09:50:08.899Z,1014.81
2019-05-01T09:51:08.872Z,1014.80
2019-05-01T09:52:08.867Z,1014.83
2019-05-01T09:53:08.864Z,1014.84
2019-05-01T09:54:09.824Z,1014.81
2019-05-01T09:55:08.831Z,1014.82
2019-05-01T09:56:09.163Z,1014.82
2019-05-01T09:57:08.817Z,1014.75
2019-05-01T09:58:08.801Z,1014.79
2019-05-01T09:59:12.597Z,1014.82
2019-05-01T10:00:09.777Z,1014.81
2019-05-01T10:01:08.766Z,1014.78
2019-05-01T10:02:09.151Z,1014.87
2019-05-01T10:03:13.192Z,1014.75
2019-05-01T10:04:09.759Z,1014.78
2019-05-01T10:05:08.726Z,1014.75
2019-05-01T10:06:08.713Z,1014.77
2019-05-01T10:07:08.705Z,1014.77
2019-05-01T10:08:09.343Z,1014.77
2019-05-01T10:09:11.990Z,1014.72
2019-05-01T10:10:09.672Z,1014.70
2019-05-01T10:11:08.665Z,1014.72
2019-05-01T10:12:11.622Z,1014.74
2019-05-01T10:13:08.639Z,1014.70
2019-05-01T10:14:08.654Z,1014.76
2019-05-01T10:15:08.622Z,1014.71
2019-05-01T10:16:08.613Z,1014.69
2019-05-01T10:17:08.595Z,1014.70
2019-05-01T10:18:08.588Z,1014.70
2019-05-01T10:19:08.577Z,1014.63
2019-05-01T10:20:08.609Z,1014.65
2019-05-01T10:21:08.558Z,1014.61
2019-05-01T10:22:08.552Z,1014.61
2019-05-01T10:23:13.043Z,1014.62
2019-05-01T10:24:09.521Z,1014.59
2019-05-01T10:25:12.263Z,1014.57
2019-05-01T10:26:08.504Z,1014.61
2019-05-01T10:27:08.493Z,1014.59
2019-05-01T10:28:12.713Z,1014.57
2019-05-01T10:29:09.475Z,1014.63
2019-05-01T10:30:08.481Z,1014.62
2019-05-01T10:31:11.957Z,1014.59
2019-05-01T10:32:08.439Z,1014.61
2019-05-01T10:33:08.430Z,1014.57
2019-05-01T10:34:09.161Z,1014.58
2019-05-01T10:35:08.446Z,1014.57
2019-05-01T10:36:12.829Z,1014.59
2019-05-01T10:37:09.385Z,1014.59
2019-05-01T10:38:09.340Z,1014.60
2019-05-01T10:39:08.374Z,1014.51
2019-05-01T10:40:08.365Z,1014.49
2019-05-01T10:41:09.262Z,1014.49
2019-05-01T10:42:08.336Z,1014.44
2019-05-01T10:43:08.325Z,1014.46
2019-05-01T10:44:08.323Z,1014.46
2019-05-01T10:45:08.311Z,1014.43
2019-05-01T10:46:08.316Z,1014.42
2019-05-01T10:47:08.289Z,1014.39
2019-05-01T10:48:08.282Z,1014.33
2019-05-01T10:49:08.257Z,1014.39
2019-05-01T10:50:08.257Z,1014.33
2019-05-01T10:51:08.268Z,1014.30
2019-05-01T10:52:14.215Z,1014.33
2019-05-01T10:53:09.296Z,1014.24
2019-05-01T10:54:08.221Z,1014.25
2019-05-01T10:55:08.217Z,1014.27
2019-05-01T10:56:08.200Z,1014.21
2019-05-01T10:57:08.183Z,1014.25
2019-05-01T10:58:12.758Z,1014.26
2019-05-01T10:59:09.152Z,1014.23
2019-05-01T11:00:08.142Z,1014.23
2019-05-01T11:01:08.162Z,1014.25
2019-05-01T11:02:08.124Z,1014.23
2019-05-01T11:03:08.124Z,1014.19
2019-05-01T11:04:08.100Z,1014.21
2019-05-01T11:05:08.098Z,1014.19
2019-05-01T11:06:08.098Z,1014.12
2019-05-01T11:07:08.078Z,1014.13
2019-05-01T11:08:08.063Z,1014.15
2019-05-01T11:09:08.049Z,1014.17
2019-05-01T11:10:08.035Z,1014.18
2019-05-01T11:11:08.044Z,1014.18
2019-05-01T11:12:08.018Z,1014.10
2019-05-01T11:13:08.055Z,1014.07
2019-05-01T11:14:08.032Z,1014.08
2019-05-01T11:15:08.224Z,1014.09
2019-05-01T11:16:08.008Z,1014.11
2019-05-01T11:17:07.974Z,1014.06
2019-05-01T11:18:07.958Z,1014.00
2019-05-01T11:19:07.938Z,1014.03
2019-05-01T11:20:07.935Z,1014.11
2019-05-01T11:21:07.964Z,1014.04
2019-05-01T11:22:07.912Z,1014.09
2019-05-01T11:23:07.901Z,1014.05
2019-05-01T11:24:07.905Z,1014.03
2019-05-01T11:25:07.878Z,1014.02
2019-05-01T11:26:07.905Z,1014.05
2019-05-01T11:27:07.878Z,1014.05
2019-05-01T11:28:07.876Z,1014.06
2019-05-01T11:29:07.859Z,1014.08
2019-05-01T11:30:07.835Z,1014.06
2019-05-01T11:31:07.835Z,1013.99
2019-05-01T11:32:07.807Z,1013.98
2019-05-01T11:33:07.788Z,1013.99
2019-05-01T11:34:07.809Z,1013.98
2019-05-01T11:35:07.840Z,1013.99
2019-05-01T11:36:09.782Z,1013.98
2019-05-01T11:37:07.787Z,1013.97
2019-05-01T11:38:07.748Z,1013.95
2019-05-01T11:39:07.791Z,1013.97
2019-05-01T11:40:07.722Z,1013.97
2019-05-01T11:41:07.725Z,1013.93
2019-05-01T11:42:07.700Z,1014.04
2019-05-01T11:43:07.683Z,1014.00
2019-05-01T11:44:07.675Z,1013.99
2019-05-01T11:45:07.669Z,1014.01
2019-05-01T11:46:07.663Z,1013.90
2019-05-01T11:47:07.664Z,1013.92
2019-05-01T11:48:07.628Z,1013.94
2019-05-01T11:49:07.617Z,1013.96
2019-05-01T11:50:07.607Z,1013.94
2019-05-01T11:51:07.606Z,1013.95
2019-05-01T11:52:07.606Z,1013.92
2019-05-01T11:53:07.575Z,1013.92
2019-05-01T11:54:07.591Z,1013.89
2019-05-01T11:55:07.591Z,1013.95
2019-05-01T11:56:07.544Z,1013.91
2019-05-01T11:57:07.557Z,1013.94
2019-05-01T11:58:07.523Z,1013.90
2019-05-01T11:59:07.511Z,1013.90
2019-05-01T12:00:07.501Z,1013.93
2019-05-01T12:01:07.497Z,1013.85
2019-05-01T12:02:07.499Z,1013.90
2019-05-01T12:03:07.471Z,1013.90
2019-05-01T12:04:07.466Z,1013.89
2019-05-01T12:05:07.547Z,1013.85
2019-05-01T12:06:07.450Z,1013.88
2019-05-01T12:07:07.448Z,1013.83
2019-05-01T12:08:07.417Z,1013.80
2019-05-01T12:09:07.406Z,1013.80
2019-05-01T12:10:07.400Z,1013.82
2019-05-01T12:11:07.388Z,1013.82
2019-05-01T12:12:07.396Z,1013.84
2019-05-01T12:13:07.365Z,1013.81
2019-05-01T12:14:07.352Z,1013.75
2019-05-01T12:15:07.348Z,1013.79
2019-05-01T12:16:07.336Z,1013.73
2019-05-01T12:17:07.341Z,1013.72
2019-05-01T12:18:07.311Z,1013.76
2019-05-01T12:19:07.313Z,1013.72
2019-05-01T12:20:07.306Z,1013.73